sensor_id;sensor_type;location;lat;lon;timestamp;P1;durP1;ratioP1;P2;durP2;ratioP2
19280;SDS011;9774;52.034;5.342;2023-03-16T00:02:10;4.95;;;2.75;;
19280;SDS011;9774;52.034;5.342;2023-03-16T00:04:38;2.78;;;2.45;;
19280;SDS011;9774;52.034;5.342;2023-03-16T00:07:06;3.85;;;2.65;;
19280;SDS011;9774;52.034;5.342;2023-03-16T00:09:35;3.33;;;2.58;;
19280;SDS011;9774;52.034;5.342;2023-03-16T00:12:05;3.58;;;3.05;;
19280;SDS011;9774;52.034;5.342;2023-03-16T00:14:40;3.92;;;3.00;;
19280;SDS011;9774;52.034;5.342;2023-03-16T00:17:07;4.65;;;2.88;;
19280;SDS011;9774;52.034;5.342;2023-03-16T00:19:44;5.85;;;2.72;;
19280;SDS011;9774;52.034;5.342;2023-03-16T00:22:13;3.25;;;2.38;;
19280;SDS011;9774;52.034;5.342;2023-03-16T00:24:41;3.83;;;2.70;;
19280;SDS011;9774;52.034;5.342;2023-03-16T00:27:09;4.28;;;2.90;;
19280;SDS011;9774;52.034;5.342;2023-03-16T00:29:39;4.15;;;2.72;;
19280;SDS011;9774;52.034;5.342;2023-03-16T00:32:12;3.30;;;2.92;;
19280;SDS011;9774;52.034;5.342;2023-03-16T00:34:41;5.57;;;3.03;;
19280;SDS011;9774;52.034;5.342;2023-03-16T00:37:10;6.05;;;3.45;;
19280;SDS011;9774;52.034;5.342;2023-03-16T00:39:39;3.13;;;2.80;;
19280;SDS011;9774;52.034;5.342;2023-03-16T00:42:07;6.78;;;2.90;;
19280;SDS011;9774;52.034;5.342;2023-03-16T00:44:34;4.20;;;3.42;;
19280;SDS011;9774;52.034;5.342;2023-03-16T00:47:02;3.38;;;3.03;;
19280;SDS011;9774;52.034;5.342;2023-03-16T00:49:31;7.65;;;3.35;;
19280;SDS011;9774;52.034;5.342;2023-03-16T00:51:59;5.22;;;2.80;;
19280;SDS011;9774;52.034;5.342;2023-03-16T00:54:28;4.18;;;3.10;;
19280;SDS011;9774;52.034;5.342;2023-03-16T00:56:56;3.80;;;3.28;;
19280;SDS011;9774;52.034;5.342;2023-03-16T00:59:24;4.10;;;3.00;;
19280;SDS011;9774;52.034;5.342;2023-03-16T01:01:52;3.08;;;2.63;;
19280;SDS011;9774;52.034;5.342;2023-03-16T01:04:20;4.40;;;3.42;;
19280;SDS011;9774;52.034;5.342;2023-03-16T01:06:48;6.20;;;3.90;;
19280;SDS011;9774;52.034;5.342;2023-03-16T01:09:15;5.38;;;3.55;;
19280;SDS011;9774;52.034;5.342;2023-03-16T01:11:44;5.35;;;3.50;;
19280;SDS011;9774;52.034;5.342;2023-03-16T01:14:14;4.05;;;3.35;;
19280;SDS011;9774;52.034;5.342;2023-03-16T01:16:42;5.90;;;2.97;;
19280;SDS011;9774;52.034;5.342;2023-03-16T01:19:10;4.40;;;3.45;;
19280;SDS011;9774;52.034;5.342;2023-03-16T01:21:37;4.88;;;3.30;;
19280;SDS011;9774;52.034;5.342;2023-03-16T01:24:04;4.15;;;3.40;;
19280;SDS011;9774;52.034;5.342;2023-03-16T01:26:32;6.45;;;3.83;;
19280;SDS011;9774;52.034;5.342;2023-03-16T01:29:01;4.97;;;3.53;;
19280;SDS011;9774;52.034;5.342;2023-03-16T01:31:28;5.63;;;3.53;;
19280;SDS011;9774;52.034;5.342;2023-03-16T01:33:55;5.63;;;3.47;;
19280;SDS011;9774;52.034;5.342;2023-03-16T01:36:23;4.15;;;3.35;;
19280;SDS011;9774;52.034;5.342;2023-03-16T01:38:50;3.90;;;3.08;;
19280;SDS011;9774;52.034;5.342;2023-03-16T01:41:18;4.32;;;3.40;;
19280;SDS011;9774;52.034;5.342;2023-03-16T01:43:46;3.80;;;3.20;;
19280;SDS011;9774;52.034;5.342;2023-03-16T01:46:18;6.13;;;3.47;;
19280;SDS011;9774;52.034;5.342;2023-03-16T01:51:35;4.47;;;3.38;;
19280;SDS011;9774;52.034;5.342;2023-03-16T01:54:09;4.72;;;2.92;;
19280;SDS011;9774;52.034;5.342;2023-03-16T01:56:41;5.50;;;3.35;;
19280;SDS011;9774;52.034;5.342;2023-03-16T01:59:15;4.35;;;3.17;;
19280;SDS011;9774;52.034;5.342;2023-03-16T02:01:47;3.67;;;2.80;;
19280;SDS011;9774;52.034;5.342;2023-03-16T02:04:20;3.97;;;3.30;;
19280;SDS011;9774;52.034;5.342;2023-03-16T02:06:52;4.57;;;3.78;;
19280;SDS011;9774;52.034;5.342;2023-03-16T02:09:22;4.60;;;3.38;;
19280;SDS011;9774;52.034;5.342;2023-03-16T02:11:50;4.53;;;3.72;;
19280;SDS011;9774;52.034;5.342;2023-03-16T02:14:20;4.63;;;3.83;;
19280;SDS011;9774;52.034;5.342;2023-03-16T02:16:50;4.80;;;4.03;;
19280;SDS011;9774;52.034;5.342;2023-03-16T02:19:19;3.55;;;3.25;;
19280;SDS011;9774;52.034;5.342;2023-03-16T02:22:01;3.80;;;3.20;;
19280;SDS011;9774;52.034;5.342;2023-03-16T02:24:30;5.00;;;3.60;;
19280;SDS011;9774;52.034;5.342;2023-03-16T02:26:58;3.97;;;3.13;;
19280;SDS011;9774;52.034;5.342;2023-03-16T02:32:21;4.38;;;2.95;;
19280;SDS011;9774;52.034;5.342;2023-03-16T02:34:50;4.32;;;2.97;;
19280;SDS011;9774;52.034;5.342;2023-03-16T02:37:17;4.07;;;3.13;;
19280;SDS011;9774;52.034;5.342;2023-03-16T02:39:45;4.35;;;3.80;;
19280;SDS011;9774;52.034;5.342;2023-03-16T02:42:14;4.32;;;3.15;;
19280;SDS011;9774;52.034;5.342;2023-03-16T02:44:43;7.22;;;3.55;;
19280;SDS011;9774;52.034;5.342;2023-03-16T02:47:18;4.05;;;3.10;;
19280;SDS011;9774;52.034;5.342;2023-03-16T02:49:51;3.95;;;3.53;;
19280;SDS011;9774;52.034;5.342;2023-03-16T02:52:19;3.90;;;3.17;;
19280;SDS011;9774;52.034;5.342;2023-03-16T02:54:46;4.63;;;3.30;;
19280;SDS011;9774;52.034;5.342;2023-03-16T02:57:13;5.15;;;3.35;;
19280;SDS011;9774;52.034;5.342;2023-03-16T02:59:41;4.05;;;3.17;;
19280;SDS011;9774;52.034;5.342;2023-03-16T03:02:08;5.57;;;3.50;;
19280;SDS011;9774;52.034;5.342;2023-03-16T03:04:37;5.43;;;3.55;;
19280;SDS011;9774;52.034;5.342;2023-03-16T03:07:04;4.30;;;3.13;;
19280;SDS011;9774;52.034;5.342;2023-03-16T03:09:32;4.18;;;3.53;;
19280;SDS011;9774;52.034;5.342;2023-03-16T03:11:59;3.55;;;2.83;;
19280;SDS011;9774;52.034;5.342;2023-03-16T03:14:26;4.53;;;3.60;;
19280;SDS011;9774;52.034;5.342;2023-03-16T03:16:54;3.90;;;3.15;;
19280;SDS011;9774;52.034;5.342;2023-03-16T03:19:21;3.42;;;2.88;;
19280;SDS011;9774;52.034;5.342;2023-03-16T03:21:50;3.97;;;3.10;;
19280;SDS011;9774;52.034;5.342;2023-03-16T03:24:20;4.30;;;3.20;;
19280;SDS011;9774;52.034;5.342;2023-03-16T03:26:48;3.30;;;2.83;;
19280;SDS011;9774;52.034;5.342;2023-03-16T03:29:17;7.13;;;3.58;;
19280;SDS011;9774;52.034;5.342;2023-03-16T03:31:44;5.47;;;3.78;;
19280;SDS011;9774;52.034;5.342;2023-03-16T03:34:11;4.75;;;3.40;;
19280;SDS011;9774;52.034;5.342;2023-03-16T03:36:39;4.95;;;3.10;;
19280;SDS011;9774;52.034;5.342;2023-03-16T03:39:08;4.57;;;3.15;;
19280;SDS011;9774;52.034;5.342;2023-03-16T03:41:35;4.20;;;3.40;;
19280;SDS011;9774;52.034;5.342;2023-03-16T03:44:03;4.13;;;3.20;;
19280;SDS011;9774;52.034;5.342;2023-03-16T03:46:30;3.67;;;2.88;;
19280;SDS011;9774;52.034;5.342;2023-03-16T03:48:57;4.03;;;3.03;;
19280;SDS011;9774;52.034;5.342;2023-03-16T03:51:27;4.88;;;3.05;;
19280;SDS011;9774;52.034;5.342;2023-03-16T03:53:56;3.95;;;3.15;;
19280;SDS011;9774;52.034;5.342;2023-03-16T03:56:25;3.78;;;2.80;;
19280;SDS011;9774;52.034;5.342;2023-03-16T03:58:52;4.28;;;2.90;;
19280;SDS011;9774;52.034;5.342;2023-03-16T04:01:19;4.13;;;2.97;;
19280;SDS011;9774;52.034;5.342;2023-03-16T04:03:47;5.65;;;3.05;;
19280;SDS011;9774;52.034;5.342;2023-03-16T04:06:14;4.45;;;2.95;;
19280;SDS011;9774;52.034;5.342;2023-03-16T04:08:41;3.90;;;3.13;;
19280;SDS011;9774;52.034;5.342;2023-03-16T04:11:09;3.80;;;2.80;;
19280;SDS011;9774;52.034;5.342;2023-03-16T04:13:38;4.35;;;2.95;;
19280;SDS011;9774;52.034;5.342;2023-03-16T04:16:05;4.30;;;2.97;;
19280;SDS011;9774;52.034;5.342;2023-03-16T04:18:33;5.38;;;3.40;;
19280;SDS011;9774;52.034;5.342;2023-03-16T04:21:02;4.32;;;2.95;;
19280;SDS011;9774;52.034;5.342;2023-03-16T04:23:31;4.90;;;3.17;;
19280;SDS011;9774;52.034;5.342;2023-03-16T04:25:59;3.55;;;3.03;;
19280;SDS011;9774;52.034;5.342;2023-03-16T04:28:27;4.82;;;3.35;;
19280;SDS011;9774;52.034;5.342;2023-03-16T04:31:01;4.80;;;3.42;;
19280;SDS011;9774;52.034;5.342;2023-03-16T04:33:29;5.18;;;3.85;;
19280;SDS011;9774;52.034;5.342;2023-03-16T04:35:57;3.85;;;2.97;;
19280;SDS011;9774;52.034;5.342;2023-03-16T04:38:24;3.70;;;2.97;;
19280;SDS011;9774;52.034;5.342;2023-03-16T04:40:51;4.40;;;2.95;;
19280;SDS011;9774;52.034;5.342;2023-03-16T04:43:19;3.97;;;3.13;;
19280;SDS011;9774;52.034;5.342;2023-03-16T04:45:47;5.30;;;3.78;;
19280;SDS011;9774;52.034;5.342;2023-03-16T04:48:15;4.25;;;2.50;;
19280;SDS011;9774;52.034;5.342;2023-03-16T04:50:43;3.75;;;2.50;;
19280;SDS011;9774;52.034;5.342;2023-03-16T04:53:10;3.42;;;2.90;;
19280;SDS011;9774;52.034;5.342;2023-03-16T04:55:38;9.75;;;3.40;;
19280;SDS011;9774;52.034;5.342;2023-03-16T04:58:06;5.05;;;3.10;;
19280;SDS011;9774;52.034;5.342;2023-03-16T05:00:33;3.55;;;2.85;;
19280;SDS011;9774;52.034;5.342;2023-03-16T05:03:00;5.05;;;3.33;;
19280;SDS011;9774;52.034;5.342;2023-03-16T05:05:29;4.72;;;3.17;;
19280;SDS011;9774;52.034;5.342;2023-03-16T05:07:57;4.10;;;2.90;;
19280;SDS011;9774;52.034;5.342;2023-03-16T05:10:25;2.95;;;2.60;;
19280;SDS011;9774;52.034;5.342;2023-03-16T05:12:53;3.10;;;2.67;;
19280;SDS011;9774;52.034;5.342;2023-03-16T05:15:20;5.45;;;3.13;;
19280;SDS011;9774;52.034;5.342;2023-03-16T05:17:47;4.00;;;2.90;;
19280;SDS011;9774;52.034;5.342;2023-03-16T05:20:15;5.00;;;3.30;;
19280;SDS011;9774;52.034;5.342;2023-03-16T05:22:44;4.38;;;2.33;;
19280;SDS011;9774;52.034;5.342;2023-03-16T05:25:13;3.17;;;2.88;;
19280;SDS011;9774;52.034;5.342;2023-03-16T05:27:41;3.40;;;3.10;;
19280;SDS011;9774;52.034;5.342;2023-03-16T05:30:10;3.17;;;2.88;;
19280;SDS011;9774;52.034;5.342;2023-03-16T05:32:38;3.33;;;2.60;;
19280;SDS011;9774;52.034;5.342;2023-03-16T05:35:06;3.03;;;2.60;;
19280;SDS011;9774;52.034;5.342;2023-03-16T05:37:37;3.55;;;2.78;;
19280;SDS011;9774;52.034;5.342;2023-03-16T05:40:06;4.78;;;3.13;;
19280;SDS011;9774;52.034;5.342;2023-03-16T05:42:41;4.22;;;2.97;;
19280;SDS011;9774;52.034;5.342;2023-03-16T05:45:10;4.05;;;2.88;;
19280;SDS011;9774;52.034;5.342;2023-03-16T05:47:37;3.72;;;2.70;;
19280;SDS011;9774;52.034;5.342;2023-03-16T05:50:06;3.10;;;2.63;;
19280;SDS011;9774;52.034;5.342;2023-03-16T05:52:35;4.85;;;2.90;;
19280;SDS011;9774;52.034;5.342;2023-03-16T05:55:03;3.45;;;2.65;;
19280;SDS011;9774;52.034;5.342;2023-03-16T05:57:32;3.17;;;2.47;;
19280;SDS011;9774;52.034;5.342;2023-03-16T06:00:00;4.13;;;2.83;;
19280;SDS011;9774;52.034;5.342;2023-03-16T06:02:36;3.78;;;2.88;;
19280;SDS011;9774;52.034;5.342;2023-03-16T06:05:04;5.93;;;3.15;;
19280;SDS011;9774;52.034;5.342;2023-03-16T06:07:32;3.33;;;2.70;;
19280;SDS011;9774;52.034;5.342;2023-03-16T06:09:59;3.85;;;2.85;;
19280;SDS011;9774;52.034;5.342;2023-03-16T06:12:30;2.90;;;2.42;;
19280;SDS011;9774;52.034;5.342;2023-03-16T06:14:58;3.97;;;2.75;;
19280;SDS011;9774;52.034;5.342;2023-03-16T06:17:25;3.60;;;2.58;;
19280;SDS011;9774;52.034;5.342;2023-03-16T06:19:53;3.90;;;2.80;;
19280;SDS011;9774;52.034;5.342;2023-03-16T06:22:20;3.60;;;2.60;;
19280;SDS011;9774;52.034;5.342;2023-03-16T06:24:48;4.38;;;2.60;;
19280;SDS011;9774;52.034;5.342;2023-03-16T06:27:16;4.07;;;2.85;;
19280;SDS011;9774;52.034;5.342;2023-03-16T06:29:46;4.57;;;2.85;;
19280;SDS011;9774;52.034;5.342;2023-03-16T06:32:14;4.50;;;2.92;;
19280;SDS011;9774;52.034;5.342;2023-03-16T06:34:41;4.65;;;2.65;;
19280;SDS011;9774;52.034;5.342;2023-03-16T06:37:08;6.40;;;3.13;;
19280;SDS011;9774;52.034;5.342;2023-03-16T06:39:35;3.47;;;2.45;;
19280;SDS011;9774;52.034;5.342;2023-03-16T06:42:03;3.70;;;2.80;;
19280;SDS011;9774;52.034;5.342;2023-03-16T06:44:30;4.00;;;2.60;;
19280;SDS011;9774;52.034;5.342;2023-03-16T06:46:59;3.95;;;2.75;;
19280;SDS011;9774;52.034;5.342;2023-03-16T06:49:27;2.67;;;2.08;;
19280;SDS011;9774;52.034;5.342;2023-03-16T06:51:54;2.22;;;2.03;;
19280;SDS011;9774;52.034;5.342;2023-03-16T06:54:22;3.95;;;2.10;;
19280;SDS011;9774;52.034;5.342;2023-03-16T06:56:49;3.65;;;2.28;;
19280;SDS011;9774;52.034;5.342;2023-03-16T06:59:17;3.50;;;2.22;;
19280;SDS011;9774;52.034;5.342;2023-03-16T07:01:44;4.75;;;2.45;;
19280;SDS011;9774;52.034;5.342;2023-03-16T07:04:13;3.92;;;2.20;;
19280;SDS011;9774;52.034;5.342;2023-03-16T07:06:40;3.50;;;2.20;;
19280;SDS011;9774;52.034;5.342;2023-03-16T07:09:08;2.60;;;1.92;;
19280;SDS011;9774;52.034;5.342;2023-03-16T07:11:36;2.85;;;1.90;;
19280;SDS011;9774;52.034;5.342;2023-03-16T07:14:03;4.45;;;2.50;;
19280;SDS011;9774;52.034;5.342;2023-03-16T07:16:31;3.22;;;2.25;;
19280;SDS011;9774;52.034;5.342;2023-03-16T07:18:58;3.55;;;2.13;;
19280;SDS011;9774;52.034;5.342;2023-03-16T07:21:27;3.22;;;2.50;;
19280;SDS011;9774;52.034;5.342;2023-03-16T07:23:56;5.55;;;2.28;;
19280;SDS011;9774;52.034;5.342;2023-03-16T07:26:23;4.78;;;2.33;;
19280;SDS011;9774;52.034;5.342;2023-03-16T07:28:50;2.67;;;2.20;;
19280;SDS011;9774;52.034;5.342;2023-03-16T07:31:17;3.30;;;2.38;;
19280;SDS011;9774;52.034;5.342;2023-03-16T07:33:45;2.92;;;2.15;;
19280;SDS011;9774;52.034;5.342;2023-03-16T07:36:12;3.25;;;1.90;;
19280;SDS011;9774;52.034;5.342;2023-03-16T07:38:41;7.13;;;2.88;;
19280;SDS011;9774;52.034;5.342;2023-03-16T07:41:08;3.58;;;2.70;;
19280;SDS011;9774;52.034;5.342;2023-03-16T07:43:35;4.55;;;2.63;;
19280;SDS011;9774;52.034;5.342;2023-03-16T07:46:02;3.28;;;2.15;;
19280;SDS011;9774;52.034;5.342;2023-03-16T07:48:30;3.38;;;2.45;;
19280;SDS011;9774;52.034;5.342;2023-03-16T07:50:57;3.65;;;2.40;;
19280;SDS011;9774;52.034;5.342;2023-03-16T07:53:24;4.18;;;2.60;;
19280;SDS011;9774;52.034;5.342;2023-03-16T07:55:53;3.97;;;2.53;;
19280;SDS011;9774;52.034;5.342;2023-03-16T07:58:20;4.13;;;2.78;;
19280;SDS011;9774;52.034;5.342;2023-03-16T08:00:48;3.30;;;2.42;;
19280;SDS011;9774;52.034;5.342;2023-03-16T08:03:15;3.40;;;2.40;;
19280;SDS011;9774;52.034;5.342;2023-03-16T08:05:42;2.67;;;1.73;;
19280;SDS011;9774;52.034;5.342;2023-03-16T08:08:09;2.47;;;2.13;;
19280;SDS011;9774;52.034;5.342;2023-03-16T08:10:37;2.53;;;2.03;;
19280;SDS011;9774;52.034;5.342;2023-03-16T08:13:05;3.03;;;2.20;;
19280;SDS011;9774;52.034;5.342;2023-03-16T08:15:33;5.60;;;2.85;;
19280;SDS011;9774;52.034;5.342;2023-03-16T08:18:01;2.95;;;1.88;;
19280;SDS011;9774;52.034;5.342;2023-03-16T08:20:31;3.92;;;2.10;;
19280;SDS011;9774;52.034;5.342;2023-03-16T08:22:58;2.38;;;2.17;;
19280;SDS011;9774;52.034;5.342;2023-03-16T08:25:26;3.97;;;2.10;;
19280;SDS011;9774;52.034;5.342;2023-03-16T08:27:53;3.63;;;2.17;;
19280;SDS011;9774;52.034;5.342;2023-03-16T08:30:23;4.13;;;3.05;;
19280;SDS011;9774;52.034;5.342;2023-03-16T08:32:50;3.20;;;2.50;;
19280;SDS011;9774;52.034;5.342;2023-03-16T08:35:18;3.63;;;2.63;;
19280;SDS011;9774;52.034;5.342;2023-03-16T08:37:45;5.03;;;3.00;;
19280;SDS011;9774;52.034;5.342;2023-03-16T08:40:13;2.88;;;2.13;;
19280;SDS011;9774;52.034;5.342;2023-03-16T08:42:42;3.90;;;2.30;;
19280;SDS011;9774;52.034;5.342;2023-03-16T08:45:10;3.08;;;2.47;;
19280;SDS011;9774;52.034;5.342;2023-03-16T08:47:38;5.95;;;2.80;;
19280;SDS011;9774;52.034;5.342;2023-03-16T08:50:07;1.95;;;1.73;;
19280;SDS011;9774;52.034;5.342;2023-03-16T08:52:37;2.83;;;2.35;;
19280;SDS011;9774;52.034;5.342;2023-03-16T08:55:05;3.42;;;2.33;;
19280;SDS011;9774;52.034;5.342;2023-03-16T08:57:34;2.97;;;2.42;;
19280;SDS011;9774;52.034;5.342;2023-03-16T09:00:03;3.38;;;2.58;;
19280;SDS011;9774;52.034;5.342;2023-03-16T09:02:39;2.95;;;2.28;;
19280;SDS011;9774;52.034;5.342;2023-03-16T09:05:07;2.28;;;2.00;;
19280;SDS011;9774;52.034;5.342;2023-03-16T09:07:36;2.70;;;2.28;;
19280;SDS011;9774;52.034;5.342;2023-03-16T09:10:03;5.22;;;2.45;;
19280;SDS011;9774;52.034;5.342;2023-03-16T09:12:33;2.65;;;2.35;;
19280;SDS011;9774;52.034;5.342;2023-03-16T09:15:02;3.63;;;2.45;;
19280;SDS011;9774;52.034;5.342;2023-03-16T09:17:29;3.58;;;2.15;;
19280;SDS011;9774;52.034;5.342;2023-03-16T09:19:58;2.33;;;1.95;;
19280;SDS011;9774;52.034;5.342;2023-03-16T09:22:26;2.90;;;2.40;;
19280;SDS011;9774;52.034;5.342;2023-03-16T09:24:54;3.50;;;2.30;;
19280;SDS011;9774;52.034;5.342;2023-03-16T09:27:21;3.97;;;2.20;;
19280;SDS011;9774;52.034;5.342;2023-03-16T09:29:49;4.05;;;2.15;;
19280;SDS011;9774;52.034;5.342;2023-03-16T09:32:19;5.72;;;2.42;;
19280;SDS011;9774;52.034;5.342;2023-03-16T09:34:47;3.28;;;1.98;;
19280;SDS011;9774;52.034;5.342;2023-03-16T09:37:15;3.40;;;1.90;;
19280;SDS011;9774;52.034;5.342;2023-03-16T09:39:43;2.83;;;2.45;;
19280;SDS011;9774;52.034;5.342;2023-03-16T09:42:13;3.50;;;1.98;;
19280;SDS011;9774;52.034;5.342;2023-03-16T09:44:46;4.82;;;2.55;;
19280;SDS011;9774;52.034;5.342;2023-03-16T09:47:24;5.07;;;2.20;;
19280;SDS011;9774;52.034;5.342;2023-03-16T09:49:54;2.92;;;2.20;;
19280;SDS011;9774;52.034;5.342;2023-03-16T09:52:27;2.90;;;2.20;;
19280;SDS011;9774;52.034;5.342;2023-03-16T09:55:01;5.45;;;2.13;;
19280;SDS011;9774;52.034;5.342;2023-03-16T09:57:33;3.78;;;2.45;;
19280;SDS011;9774;52.034;5.342;2023-03-16T10:00:09;3.05;;;2.15;;
19280;SDS011;9774;52.034;5.342;2023-03-16T10:02:46;2.58;;;2.28;;
19280;SDS011;9774;52.034;5.342;2023-03-16T10:05:23;3.97;;;2.50;;
19280;SDS011;9774;52.034;5.342;2023-03-16T10:07:56;3.13;;;2.50;;
19280;SDS011;9774;52.034;5.342;2023-03-16T10:10:40;3.88;;;2.55;;
19280;SDS011;9774;52.034;5.342;2023-03-16T10:13:30;2.38;;;2.10;;
19280;SDS011;9774;52.034;5.342;2023-03-16T10:16:04;3.30;;;2.22;;
19280;SDS011;9774;52.034;5.342;2023-03-16T10:18:38;6.28;;;2.40;;
19280;SDS011;9774;52.034;5.342;2023-03-16T10:21:12;3.33;;;2.28;;
19280;SDS011;9774;52.034;5.342;2023-03-16T10:23:43;3.13;;;2.03;;
19280;SDS011;9774;52.034;5.342;2023-03-16T10:26:13;3.22;;;2.38;;
19280;SDS011;9774;52.034;5.342;2023-03-16T10:28:43;3.03;;;2.38;;
19280;SDS011;9774;52.034;5.342;2023-03-16T10:31:12;4.43;;;2.67;;
19280;SDS011;9774;52.034;5.342;2023-03-16T10:33:41;4.00;;;2.35;;
19280;SDS011;9774;52.034;5.342;2023-03-16T10:36:11;3.38;;;2.40;;
19280;SDS011;9774;52.034;5.342;2023-03-16T10:38:41;3.03;;;2.45;;
19280;SDS011;9774;52.034;5.342;2023-03-16T10:41:19;4.60;;;2.53;;
19280;SDS011;9774;52.034;5.342;2023-03-16T10:43:50;3.22;;;2.38;;
19280;SDS011;9774;52.034;5.342;2023-03-16T10:46:21;3.10;;;2.25;;
19280;SDS011;9774;52.034;5.342;2023-03-16T10:48:50;2.45;;;1.75;;
19280;SDS011;9774;52.034;5.342;2023-03-16T10:51:24;2.63;;;2.00;;
19280;SDS011;9774;52.034;5.342;2023-03-16T10:53:59;3.85;;;2.55;;
19280;SDS011;9774;52.034;5.342;2023-03-16T10:56:35;2.38;;;1.90;;
19280;SDS011;9774;52.034;5.342;2023-03-16T10:59:12;2.83;;;1.50;;
19280;SDS011;9774;52.034;5.342;2023-03-16T11:01:43;4.05;;;1.95;;
19280;SDS011;9774;52.034;5.342;2023-03-16T11:04:13;4.45;;;2.13;;
19280;SDS011;9774;52.034;5.342;2023-03-16T11:06:50;2.50;;;2.17;;
19280;SDS011;9774;52.034;5.342;2023-03-16T11:09:21;2.75;;;1.85;;
19280;SDS011;9774;52.034;5.342;2023-03-16T11:11:50;2.72;;;1.85;;
19280;SDS011;9774;52.034;5.342;2023-03-16T11:14:19;4.82;;;1.85;;
19280;SDS011;9774;52.034;5.342;2023-03-16T11:16:49;5.55;;;2.15;;
19280;SDS011;9774;52.034;5.342;2023-03-16T11:19:23;4.82;;;1.90;;
19280;SDS011;9774;52.034;5.342;2023-03-16T11:21:55;3.60;;;1.75;;
19280;SDS011;9774;52.034;5.342;2023-03-16T11:24:28;3.13;;;1.50;;
19280;SDS011;9774;52.034;5.342;2023-03-16T11:26:59;2.65;;;1.70;;
19280;SDS011;9774;52.034;5.342;2023-03-16T11:29:31;3.15;;;1.60;;
19280;SDS011;9774;52.034;5.342;2023-03-16T11:32:11;2.22;;;1.52;;
19280;SDS011;9774;52.034;5.342;2023-03-16T11:34:44;2.42;;;1.67;;
19280;SDS011;9774;52.034;5.342;2023-03-16T11:37:13;3.40;;;1.73;;
19280;SDS011;9774;52.034;5.342;2023-03-16T11:39:53;2.10;;;1.23;;
19280;SDS011;9774;52.034;5.342;2023-03-16T11:42:35;2.95;;;1.27;;
19280;SDS011;9774;52.034;5.342;2023-03-16T11:45:08;2.50;;;1.33;;
19280;SDS011;9774;52.034;5.342;2023-03-16T11:47:56;1.65;;;1.20;;
19280;SDS011;9774;52.034;5.342;2023-03-16T11:50:42;2.33;;;1.42;;
19280;SDS011;9774;52.034;5.342;2023-03-16T11:53:22;1.48;;;1.05;;
19280;SDS011;9774;52.034;5.342;2023-03-16T11:56:01;2.78;;;1.65;;
19280;SDS011;9774;52.034;5.342;2023-03-16T11:58:41;4.25;;;1.58;;
19280;SDS011;9774;52.034;5.342;2023-03-16T12:01:21;3.55;;;1.98;;
19280;SDS011;9774;52.034;5.342;2023-03-16T12:04:01;2.95;;;1.50;;
19280;SDS011;9774;52.034;5.342;2023-03-16T12:06:39;4.40;;;1.65;;
19280;SDS011;9774;52.034;5.342;2023-03-16T12:12:21;3.92;;;1.40;;
19280;SDS011;9774;52.034;5.342;2023-03-16T12:15:08;2.08;;;1.10;;
19280;SDS011;9774;52.034;5.342;2023-03-16T12:17:45;2.97;;;1.13;;
19280;SDS011;9774;52.034;5.342;2023-03-16T12:20:16;3.63;;;1.52;;
19280;SDS011;9774;52.034;5.342;2023-03-16T12:22:45;2.03;;;1.17;;
19280;SDS011;9774;52.034;5.342;2023-03-16T12:25:16;1.60;;;1.10;;
19280;SDS011;9774;52.034;5.342;2023-03-16T12:27:48;3.13;;;1.42;;
19280;SDS011;9774;52.034;5.342;2023-03-16T12:30:22;2.70;;;0.95;;
19280;SDS011;9774;52.034;5.342;2023-03-16T12:33:00;2.80;;;1.52;;
19280;SDS011;9774;52.034;5.342;2023-03-16T12:35:35;1.73;;;1.10;;
19280;SDS011;9774;52.034;5.342;2023-03-16T12:38:16;1.70;;;1.10;;
19280;SDS011;9774;52.034;5.342;2023-03-16T12:40:58;1.20;;;0.95;;
19280;SDS011;9774;52.034;5.342;2023-03-16T12:43:38;1.45;;;1.08;;
19280;SDS011;9774;52.034;5.342;2023-03-16T12:46:20;2.25;;;1.13;;
19280;SDS011;9774;52.034;5.342;2023-03-16T12:48:54;1.95;;;0.98;;
19280;SDS011;9774;52.034;5.342;2023-03-16T12:51:31;1.67;;;0.90;;
19280;SDS011;9774;52.034;5.342;2023-03-16T12:53:59;3.00;;;1.00;;
19280;SDS011;9774;52.034;5.342;2023-03-16T12:56:28;3.30;;;1.08;;
19280;SDS011;9774;52.034;5.342;2023-03-16T12:58:59;4.38;;;1.40;;
19280;SDS011;9774;52.034;5.342;2023-03-16T13:01:30;2.22;;;0.82;;
19280;SDS011;9774;52.034;5.342;2023-03-16T13:04:06;2.30;;;0.98;;
19280;SDS011;9774;52.034;5.342;2023-03-16T13:06:40;1.40;;;0.93;;
19280;SDS011;9774;52.034;5.342;2023-03-16T13:09:10;1.65;;;0.80;;
19280;SDS011;9774;52.034;5.342;2023-03-16T13:11:42;1.55;;;1.00;;
19280;SDS011;9774;52.034;5.342;2023-03-16T13:14:16;2.13;;;1.00;;
19280;SDS011;9774;52.034;5.342;2023-03-16T13:17:02;1.70;;;0.77;;
19280;SDS011;9774;52.034;5.342;2023-03-16T13:19:31;1.30;;;0.68;;
19280;SDS011;9774;52.034;5.342;2023-03-16T13:22:04;1.98;;;0.80;;
19280;SDS011;9774;52.034;5.342;2023-03-16T13:24:48;2.55;;;0.93;;
19280;SDS011;9774;52.034;5.342;2023-03-16T13:27:21;3.42;;;1.23;;
19280;SDS011;9774;52.034;5.342;2023-03-16T13:29:56;1.70;;;0.95;;
19280;SDS011;9774;52.034;5.342;2023-03-16T13:32:29;3.20;;;0.95;;
19280;SDS011;9774;52.034;5.342;2023-03-16T13:34:59;2.70;;;0.90;;
19280;SDS011;9774;52.034;5.342;2023-03-16T13:37:29;2.53;;;0.98;;
19280;SDS011;9774;52.034;5.342;2023-03-16T13:39:57;2.97;;;1.00;;
19280;SDS011;9774;52.034;5.342;2023-03-16T13:42:27;4.00;;;1.13;;
19280;SDS011;9774;52.034;5.342;2023-03-16T13:44:58;3.10;;;0.77;;
19280;SDS011;9774;52.034;5.342;2023-03-16T13:47:32;1.13;;;0.80;;
19280;SDS011;9774;52.034;5.342;2023-03-16T13:50:00;1.42;;;0.73;;
19280;SDS011;9774;52.034;5.342;2023-03-16T13:52:27;1.52;;;0.90;;
19280;SDS011;9774;52.034;5.342;2023-03-16T13:54:57;2.03;;;0.63;;
19280;SDS011;9774;52.034;5.342;2023-03-16T13:57:26;1.98;;;0.70;;
19280;SDS011;9774;52.034;5.342;2023-03-16T14:00:01;2.05;;;0.82;;
19280;SDS011;9774;52.034;5.342;2023-03-16T14:02:35;2.85;;;0.50;;
19280;SDS011;9774;52.034;5.342;2023-03-16T14:05:09;1.30;;;0.70;;
19280;SDS011;9774;52.034;5.342;2023-03-16T14:07:44;2.13;;;1.00;;
19280;SDS011;9774;52.034;5.342;2023-03-16T14:10:13;0.90;;;0.55;;
19280;SDS011;9774;52.034;5.342;2023-03-16T14:12:49;1.63;;;0.70;;
19280;SDS011;9774;52.034;5.342;2023-03-16T14:15:18;12.05;;;0.80;;
19280;SDS011;9774;52.034;5.342;2023-03-16T14:17:47;2.45;;;0.80;;
19280;SDS011;9774;52.034;5.342;2023-03-16T14:20:17;0.82;;;0.60;;
19280;SDS011;9774;52.034;5.342;2023-03-16T14:22:46;1.45;;;0.50;;
19280;SDS011;9774;52.034;5.342;2023-03-16T14:25:17;1.50;;;0.88;;
19280;SDS011;9774;52.034;5.342;2023-03-16T14:27:48;1.05;;;0.52;;
19280;SDS011;9774;52.034;5.342;2023-03-16T14:30:25;1.20;;;0.60;;
19280;SDS011;9774;52.034;5.342;2023-03-16T14:32:55;1.95;;;0.77;;
19280;SDS011;9774;52.034;5.342;2023-03-16T14:35:25;2.65;;;0.57;;
19280;SDS011;9774;52.034;5.342;2023-03-16T14:37:54;0.77;;;0.40;;
19280;SDS011;9774;52.034;5.342;2023-03-16T14:40:23;2.35;;;0.95;;
19280;SDS011;9774;52.034;5.342;2023-03-16T14:42:53;1.42;;;0.65;;
19280;SDS011;9774;52.034;5.342;2023-03-16T14:45:24;2.15;;;0.80;;
19280;SDS011;9774;52.034;5.342;2023-03-16T14:47:59;2.13;;;0.75;;
19280;SDS011;9774;52.034;5.342;2023-03-16T14:50:28;1.38;;;0.77;;
19280;SDS011;9774;52.034;5.342;2023-03-16T14:52:58;1.10;;;0.68;;
19280;SDS011;9774;52.034;5.342;2023-03-16T14:55:27;3.00;;;0.85;;
19280;SDS011;9774;52.034;5.342;2023-03-16T14:57:55;1.27;;;0.80;;
19280;SDS011;9774;52.034;5.342;2023-03-16T15:00:22;1.52;;;0.95;;
19280;SDS011;9774;52.034;5.342;2023-03-16T15:02:57;4.45;;;1.08;;
19280;SDS011;9774;52.034;5.342;2023-03-16T15:05:29;2.20;;;0.95;;
19280;SDS011;9774;52.034;5.342;2023-03-16T15:08:00;2.28;;;0.70;;
19280;SDS011;9774;52.034;5.342;2023-03-16T15:10:30;2.08;;;0.68;;
19280;SDS011;9774;52.034;5.342;2023-03-16T15:12:59;1.20;;;0.70;;
19280;SDS011;9774;52.034;5.342;2023-03-16T15:15:38;3.00;;;0.80;;
19280;SDS011;9774;52.034;5.342;2023-03-16T15:18:06;1.33;;;0.75;;
19280;SDS011;9774;52.034;5.342;2023-03-16T15:20:36;1.98;;;0.57;;
19280;SDS011;9774;52.034;5.342;2023-03-16T15:23:07;1.55;;;0.60;;
19280;SDS011;9774;52.034;5.342;2023-03-16T15:25:39;1.35;;;0.88;;
19280;SDS011;9774;52.034;5.342;2023-03-16T15:28:11;1.92;;;0.77;;